AIC213 VTBS-VTSP
Flight info
| Callsign | AIC213 |
|---|---|
| Flight time | 1h 1m |
| Altitude | 32000 |
| Route | VANKO1F VANKO Y8 SAVSA SAVSA1D |
| Aircraft | A320/M-SDE3FGHIRWY/LB1 |
Departure
| Time | 2026-05-05 05:45 |
|---|---|
| Airport | Suvarnabhumi Airport (VTBS) |
Arrival
| Time | 2026-05-05 06:47 |
|---|---|
| Airport | Phuket International Airport (VTSP) |
| Time | Latitude | Longitude | Altitude | Speed | Heading |
|---|---|---|---|---|---|
| 2026-05-05 05:12 | 13.69214 | 100.74486 | 13 ft | 0 kts | 14° |
| 2026-05-05 05:21 | 13.69209 | 100.74484 | 13 ft | 4 kts | 14° |
| 2026-05-05 05:22 | 13.69183 | 100.74479 | 13 ft | 4 kts | 8° |
| 2026-05-05 05:22 | 13.69156 | 100.74476 | 17 ft | 4 kts | 354° |
| 2026-05-05 05:22 | 13.69133 | 100.74484 | 13 ft | 4 kts | 307° |
| 2026-05-05 05:22 | 13.69128 | 100.74491 | 13 ft | 1 kts | 285° |
| 2026-05-05 05:37 | 13.69140 | 100.74446 | 13 ft | 9 kts | 285° |
| 2026-05-05 05:37 | 13.69154 | 100.74390 | 15 ft | 7 kts | 283° |
| 2026-05-05 05:37 | 13.69158 | 100.74343 | 13 ft | 6 kts | 265° |
| 2026-05-05 05:38 | 13.69129 | 100.74295 | 13 ft | 15 kts | 220° |
| 2026-05-05 05:38 | 13.68984 | 100.74249 | 14 ft | 25 kts | 194° |
| 2026-05-05 05:38 | 13.68811 | 100.74202 | 14 ft | 26 kts | 193° |
| 2026-05-05 05:38 | 13.68630 | 100.74161 | 14 ft | 27 kts | 199° |
| 2026-05-05 05:39 | 13.68448 | 100.74100 | 15 ft | 28 kts | 191° |
| 2026-05-05 05:39 | 13.68253 | 100.74062 | 13 ft | 29 kts | 198° |
| 2026-05-05 05:39 | 13.68141 | 100.73953 | 13 ft | 19 kts | 290° |
| 2026-05-05 05:39 | 13.68122 | 100.73904 | 13 ft | 2 kts | 193° |
| 2026-05-05 05:40 | 13.68088 | 100.73896 | 13 ft | 11 kts | 193° |
| 2026-05-05 05:40 | 13.67969 | 100.73869 | 13 ft | 24 kts | 191° |
| 2026-05-05 05:40 | 13.67778 | 100.73829 | 13 ft | 30 kts | 195° |
| 2026-05-05 05:40 | 13.67575 | 100.73771 | 13 ft | 30 kts | 212° |
| 2026-05-05 05:41 | 13.67531 | 100.73721 | 13 ft | 0 kts | 268° |
| 2026-05-05 05:41 | 13.67531 | 100.73699 | -1 ft | 11 kts | 271° |
| 2026-05-05 05:41 | 13.67569 | 100.73565 | 15 ft | 26 kts | 296° |
| 2026-05-05 05:41 | 13.67600 | 100.73440 | 15 ft | 0 kts | 286° |
| 2026-05-05 05:42 | 13.67576 | 100.73395 | 15 ft | 17 kts | 213° |
| 2026-05-05 05:42 | 13.67412 | 100.73358 | 13 ft | 32 kts | 191° |
| 2026-05-05 05:42 | 13.67151 | 100.73292 | 14 ft | 43 kts | 193° |
| 2026-05-05 05:43 | 13.66864 | 100.73221 | 13 ft | 42 kts | 193° |
| 2026-05-05 05:43 | 13.66624 | 100.73144 | 13 ft | 5 kts | 214° |
| 2026-05-05 05:43 | 13.66623 | 100.73144 | 13 ft | 0 kts | 217° |
| 2026-05-05 05:44 | 13.66621 | 100.73142 | 13 ft | 4 kts | 217° |
| 2026-05-05 05:44 | 13.66600 | 100.73069 | 13 ft | 14 kts | 293° |
| 2026-05-05 05:44 | 13.66622 | 100.72985 | 13 ft | 11 kts | 308° |
| 2026-05-05 05:44 | 13.66684 | 100.72968 | 13 ft | 9 kts | 6° |
| 2026-05-05 05:45 | 13.66867 | 100.73010 | 12 ft | 64 kts | 14° |
| 2026-05-05 05:45 | 13.67570 | 100.73201 | 16 ft | 142 kts | 14° |
| 2026-05-05 05:45 | 13.68692 | 100.73486 | 420 ft | 172 kts | 14° |
| 2026-05-05 05:45 | 13.69920 | 100.73789 | 975 ft | 199 kts | 14° |
| 2026-05-05 05:46 | 13.71336 | 100.74203 | 1596 ft | 215 kts | 17° |
| 2026-05-05 05:46 | 13.72767 | 100.74673 | 2187 ft | 220 kts | 18° |
| 2026-05-05 05:46 | 13.74270 | 100.75180 | 2654 ft | 235 kts | 18° |
| 2026-05-05 05:46 | 13.75865 | 100.75719 | 3165 ft | 247 kts | 18° |
| 2026-05-05 05:47 | 13.77578 | 100.76247 | 3651 ft | 266 kts | 16° |
| 2026-05-05 05:47 | 13.79399 | 100.76745 | 4123 ft | 272 kts | 15° |
| 2026-05-05 05:47 | 13.81241 | 100.77221 | 4618 ft | 274 kts | 15° |
| 2026-05-05 05:47 | 13.83101 | 100.77694 | 5097 ft | 277 kts | 15° |
| 2026-05-05 05:48 | 13.84977 | 100.78174 | 5571 ft | 278 kts | 15° |
| 2026-05-05 05:48 | 13.86864 | 100.78663 | 6057 ft | 281 kts | 16° |
| 2026-05-05 05:48 | 13.88765 | 100.79160 | 6533 ft | 284 kts | 15° |
| 2026-05-05 05:48 | 13.90688 | 100.79665 | 6849 ft | 286 kts | 15° |
| 2026-05-05 05:49 | 13.92613 | 100.80166 | 6912 ft | 285 kts | 13° |
| 2026-05-05 05:49 | 13.94584 | 100.80293 | 6922 ft | 287 kts | 354° |
| 2026-05-05 05:49 | 13.96501 | 100.79747 | 6924 ft | 288 kts | 335° |
| 2026-05-05 05:49 | 13.98153 | 100.78585 | 6921 ft | 289 kts | 315° |
| 2026-05-05 05:50 | 13.99533 | 100.77079 | 6919 ft | 289 kts | 313° |
| 2026-05-05 05:50 | 14.00915 | 100.75572 | 6924 ft | 289 kts | 314° |
| 2026-05-05 05:50 | 14.02298 | 100.74074 | 6974 ft | 288 kts | 314° |
| 2026-05-05 05:50 | 14.03668 | 100.72594 | 7470 ft | 291 kts | 314° |
| 2026-05-05 05:51 | 14.05071 | 100.71076 | 8273 ft | 294 kts | 313° |
| 2026-05-05 05:51 | 14.06271 | 100.69362 | 9068 ft | 297 kts | 297° |
| 2026-05-05 05:51 | 14.06982 | 100.67357 | 9843 ft | 301 kts | 281° |
| 2026-05-05 05:51 | 14.07310 | 100.65202 | 10390 ft | 311 kts | 278° |
| 2026-05-05 05:52 | 14.07644 | 100.62938 | 10735 ft | 328 kts | 279° |
| 2026-05-05 05:52 | 14.08005 | 100.60552 | 11071 ft | 345 kts | 279° |
| 2026-05-05 05:52 | 14.08386 | 100.58053 | 11370 ft | 362 kts | 279° |
| 2026-05-05 05:52 | 14.08787 | 100.55434 | 11634 ft | 378 kts | 279° |
| 2026-05-05 05:53 | 14.09204 | 100.52701 | 11851 ft | 395 kts | 279° |
| 2026-05-05 05:53 | 14.09637 | 100.49853 | 12043 ft | 410 kts | 279° |
| 2026-05-05 05:53 | 14.10082 | 100.46920 | 12439 ft | 418 kts | 279° |
| 2026-05-05 05:53 | 14.10531 | 100.43949 | 12997 ft | 421 kts | 279° |
| 2026-05-05 05:54 | 14.10809 | 100.40949 | 13560 ft | 424 kts | 269° |
| 2026-05-05 05:54 | 14.10433 | 100.37934 | 14068 ft | 426 kts | 255° |
| 2026-05-05 05:54 | 14.09376 | 100.35077 | 14545 ft | 429 kts | 242° |
| 2026-05-05 05:54 | 14.08326 | 100.33342 | 14863 ft | 431 kts | 233° |
| 2026-05-05 05:55 | 14.06276 | 100.31094 | 15327 ft | 433 kts | 219° |
| 2026-05-05 05:55 | 14.03780 | 100.29342 | 15763 ft | 436 kts | 211° |
| 2026-05-05 05:55 | 14.01181 | 100.27716 | 16181 ft | 439 kts | 211° |
| 2026-05-05 05:55 | 13.98567 | 100.26079 | 16593 ft | 442 kts | 211° |
| 2026-05-05 05:56 | 13.95932 | 100.24428 | 17018 ft | 444 kts | 211° |
| 2026-05-05 05:56 | 13.93281 | 100.22766 | 17409 ft | 447 kts | 211° |
| 2026-05-05 05:56 | 13.90616 | 100.21095 | 17779 ft | 450 kts | 211° |
| 2026-05-05 05:56 | 13.87937 | 100.19415 | 18173 ft | 452 kts | 211° |
| 2026-05-05 05:57 | 13.85239 | 100.17724 | 18496 ft | 454 kts | 211° |
| 2026-05-05 05:57 | 13.82532 | 100.16031 | 18819 ft | 456 kts | 211° |
| 2026-05-05 05:57 | 13.79820 | 100.14332 | 19133 ft | 458 kts | 212° |
| 2026-05-05 05:57 | 13.77094 | 100.12622 | 19448 ft | 460 kts | 211° |
| 2026-05-05 05:58 | 13.74265 | 100.11088 | 19759 ft | 461 kts | 203° |
| 2026-05-05 05:58 | 13.71193 | 100.10086 | 20052 ft | 464 kts | 192° |
| 2026-05-05 05:58 | 13.68032 | 100.09672 | 20328 ft | 466 kts | 182° |
| 2026-05-05 05:58 | 13.64788 | 100.09857 | 20594 ft | 469 kts | 171° |
| 2026-05-05 05:59 | 13.61615 | 100.10644 | 20847 ft | 471 kts | 163° |
| 2026-05-05 05:59 | 13.58479 | 100.11644 | 21096 ft | 473 kts | 163° |
| 2026-05-05 05:59 | 13.55323 | 100.12640 | 21344 ft | 475 kts | 163° |
| 2026-05-05 05:59 | 13.52158 | 100.13632 | 21588 ft | 477 kts | 163° |
| 2026-05-05 06:00 | 13.48978 | 100.14622 | 21824 ft | 478 kts | 163° |
| 2026-05-05 06:00 | 13.45786 | 100.15613 | 22065 ft | 480 kts | 163° |
| 2026-05-05 06:00 | 13.42582 | 100.16609 | 22281 ft | 481 kts | 163° |
| 2026-05-05 06:00 | 13.39369 | 100.17611 | 22486 ft | 483 kts | 163° |
| 2026-05-05 06:01 | 13.36145 | 100.18587 | 22698 ft | 484 kts | 166° |
| 2026-05-05 06:01 | 13.32827 | 100.19178 | 22898 ft | 485 kts | 175° |
| 2026-05-05 06:01 | 13.29453 | 100.19271 | 23089 ft | 486 kts | 181° |
| 2026-05-05 06:01 | 13.26065 | 100.19228 | 23263 ft | 487 kts | 181° |
| 2026-05-05 06:02 | 13.22674 | 100.19192 | 23440 ft | 489 kts | 181° |
| 2026-05-05 06:02 | 13.19265 | 100.19161 | 23589 ft | 490 kts | 181° |
| 2026-05-05 06:02 | 13.15854 | 100.19133 | 23729 ft | 491 kts | 181° |
| 2026-05-05 06:02 | 13.12433 | 100.19107 | 23867 ft | 492 kts | 181° |
| 2026-05-05 06:03 | 13.09003 | 100.19081 | 24009 ft | 493 kts | 181° |
| 2026-05-05 06:03 | 13.05589 | 100.18889 | 24207 ft | 491 kts | 188° |
| 2026-05-05 06:03 | 13.02267 | 100.18120 | 24424 ft | 489 kts | 199° |
| 2026-05-05 06:03 | 12.99134 | 100.16777 | 24636 ft | 487 kts | 209° |
| 2026-05-05 06:04 | 12.96289 | 100.14906 | 24838 ft | 486 kts | 219° |
| 2026-05-05 06:04 | 12.93794 | 100.12583 | 25057 ft | 484 kts | 226° |
| 2026-05-05 06:04 | 12.91470 | 100.10145 | 25261 ft | 484 kts | 226° |
| 2026-05-05 06:04 | 12.89105 | 100.07678 | 25474 ft | 484 kts | 226° |
| 2026-05-05 06:05 | 12.86744 | 100.05225 | 25701 ft | 483 kts | 226° |
| 2026-05-05 06:05 | 12.84381 | 100.02774 | 25939 ft | 483 kts | 226° |
| 2026-05-05 06:05 | 12.82023 | 100.00328 | 26183 ft | 482 kts | 226° |
| 2026-05-05 06:05 | 12.79667 | 99.97887 | 26432 ft | 481 kts | 226° |
| 2026-05-05 06:06 | 12.77314 | 99.95449 | 26695 ft | 481 kts | 226° |
| 2026-05-05 06:06 | 12.74967 | 99.93011 | 26955 ft | 480 kts | 226° |
| 2026-05-05 06:06 | 12.72629 | 99.90576 | 27216 ft | 479 kts | 226° |
| 2026-05-05 06:06 | 12.70297 | 99.88147 | 27485 ft | 478 kts | 226° |
| 2026-05-05 06:07 | 12.67966 | 99.85720 | 27762 ft | 478 kts | 226° |
| 2026-05-05 06:07 | 12.65633 | 99.83296 | 28035 ft | 477 kts | 226° |
| 2026-05-05 06:07 | 12.63301 | 99.80879 | 28315 ft | 476 kts | 226° |
| 2026-05-05 06:07 | 12.60904 | 99.78547 | 28610 ft | 476 kts | 220° |
| 2026-05-05 06:08 | 12.58189 | 99.76615 | 28901 ft | 476 kts | 211° |
| 2026-05-05 06:08 | 12.55197 | 99.75161 | 29191 ft | 477 kts | 201° |
| 2026-05-05 06:08 | 12.52022 | 99.74172 | 29472 ft | 477 kts | 196° |
| 2026-05-05 06:08 | 12.48822 | 99.73276 | 29746 ft | 477 kts | 196° |
| 2026-05-05 06:09 | 12.45624 | 99.72377 | 30017 ft | 476 kts | 197° |
| 2026-05-05 06:09 | 12.42427 | 99.71476 | 30257 ft | 476 kts | 196° |
| 2026-05-05 06:09 | 12.39234 | 99.70575 | 30484 ft | 475 kts | 197° |
| 2026-05-05 06:09 | 12.36052 | 99.69677 | 30721 ft | 475 kts | 197° |
| 2026-05-05 06:10 | 12.32863 | 99.68775 | 30961 ft | 475 kts | 197° |
| 2026-05-05 06:10 | 12.29683 | 99.67875 | 31205 ft | 474 kts | 197° |
| 2026-05-05 06:10 | 12.26502 | 99.66979 | 31454 ft | 474 kts | 197° |
| 2026-05-05 06:10 | 12.23320 | 99.66085 | 31702 ft | 473 kts | 197° |
| 2026-05-05 06:11 | 12.20186 | 99.65203 | 31860 ft | 473 kts | 197° |
| 2026-05-05 06:11 | 12.16994 | 99.64304 | 31899 ft | 478 kts | 196° |
| 2026-05-05 06:11 | 12.10533 | 99.62488 | 31892 ft | 483 kts | 196° |
| 2026-05-05 06:12 | 12.04056 | 99.60665 | 31891 ft | 482 kts | 196° |
| 2026-05-05 06:12 | 11.97586 | 99.58840 | 31891 ft | 482 kts | 196° |
| 2026-05-05 06:13 | 11.91120 | 99.57020 | 31891 ft | 482 kts | 196° |
| 2026-05-05 06:13 | 11.84651 | 99.55205 | 31888 ft | 482 kts | 196° |
| 2026-05-05 06:14 | 11.78180 | 99.53402 | 31886 ft | 482 kts | 196° |
| 2026-05-05 06:14 | 11.71710 | 99.51586 | 31894 ft | 482 kts | 196° |
| 2026-05-05 06:15 | 11.65241 | 99.49765 | 31897 ft | 482 kts | 196° |
| 2026-05-05 06:15 | 11.58776 | 99.47948 | 31900 ft | 482 kts | 196° |
| 2026-05-05 06:16 | 11.52311 | 99.46141 | 31895 ft | 482 kts | 196° |
| 2026-05-05 06:16 | 11.45838 | 99.44334 | 31897 ft | 482 kts | 196° |
| 2026-05-05 06:17 | 11.39366 | 99.42522 | 31901 ft | 482 kts | 196° |
| 2026-05-05 06:17 | 11.32898 | 99.40713 | 31894 ft | 482 kts | 196° |
| 2026-05-05 06:18 | 11.26422 | 99.38900 | 31895 ft | 483 kts | 196° |
| 2026-05-05 06:18 | 11.19946 | 99.37092 | 31901 ft | 483 kts | 196° |
| 2026-05-05 06:19 | 11.13509 | 99.35293 | 31898 ft | 483 kts | 196° |
| 2026-05-05 06:19 | 11.07021 | 99.33484 | 31900 ft | 483 kts | 195° |
| 2026-05-05 06:20 | 11.00526 | 99.31672 | 31894 ft | 484 kts | 195° |
| 2026-05-05 06:20 | 10.94020 | 99.29856 | 31893 ft | 485 kts | 195° |
| 2026-05-05 06:21 | 10.87510 | 99.28038 | 31896 ft | 485 kts | 195° |
| 2026-05-05 06:21 | 10.80995 | 99.26222 | 31890 ft | 486 kts | 195° |
| 2026-05-05 06:22 | 10.74470 | 99.24409 | 31886 ft | 487 kts | 195° |
| 2026-05-05 06:22 | 10.67938 | 99.22593 | 31885 ft | 487 kts | 195° |
| 2026-05-05 06:23 | 10.61404 | 99.20769 | 31884 ft | 487 kts | 195° |
| 2026-05-05 06:23 | 10.54869 | 99.18946 | 31882 ft | 487 kts | 195° |
| 2026-05-05 06:24 | 10.23379 | 99.09485 | 30916 ft | 464 kts | 202° |
| 2026-05-05 06:24 | 10.20328 | 99.08396 | 31106 ft | 466 kts | 194° |
| 2026-05-05 06:24 | 10.17151 | 99.07690 | 31294 ft | 468 kts | 189° |
| 2026-05-05 06:25 | 10.13928 | 99.07144 | 31490 ft | 470 kts | 188° |
| 2026-05-05 06:25 | 10.10689 | 99.06578 | 31683 ft | 473 kts | 190° |
| 2026-05-05 06:25 | 10.07464 | 99.05901 | 31866 ft | 475 kts | 192° |
| 2026-05-05 06:25 | 10.04231 | 99.05094 | 31886 ft | 481 kts | 194° |
| 2026-05-05 06:26 | 9.97713 | 99.03209 | 31886 ft | 491 kts | 196° |
| 2026-05-05 06:26 | 9.91123 | 99.01242 | 31887 ft | 494 kts | 195° |
| 2026-05-05 06:27 | 9.81174 | 98.98474 | 31886 ft | 494 kts | 194° |
| 2026-05-05 06:28 | 9.74533 | 98.96670 | 31802 ft | 491 kts | 194° |
| 2026-05-05 06:28 | 9.71257 | 98.95772 | 31568 ft | 487 kts | 194° |
| 2026-05-05 06:28 | 9.68030 | 98.94879 | 31336 ft | 488 kts | 194° |
| 2026-05-05 06:28 | 9.64725 | 98.93962 | 31097 ft | 480 kts | 194° |
| 2026-05-05 06:29 | 9.61597 | 98.93095 | 30870 ft | 466 kts | 194° |
| 2026-05-05 06:29 | 9.58508 | 98.92240 | 30648 ft | 454 kts | 194° |
| 2026-05-05 06:29 | 9.55502 | 98.91407 | 30428 ft | 442 kts | 194° |
| 2026-05-05 06:29 | 9.52568 | 98.90596 | 30200 ft | 431 kts | 194° |
| 2026-05-05 06:30 | 9.49712 | 98.89805 | 29980 ft | 421 kts | 194° |
| 2026-05-05 06:30 | 9.46919 | 98.89031 | 29722 ft | 411 kts | 194° |
| 2026-05-05 06:30 | 9.44197 | 98.88278 | 29460 ft | 402 kts | 194° |
| 2026-05-05 06:30 | 9.41525 | 98.87538 | 29196 ft | 393 kts | 194° |
| 2026-05-05 06:31 | 9.38912 | 98.86816 | 28944 ft | 385 kts | 194° |
| 2026-05-05 06:31 | 8.99600 | 98.78325 | 18713 ft | 301 kts | 192° |
| 2026-05-05 06:31 | 8.97336 | 98.77511 | 18087 ft | 312 kts | 207° |
| 2026-05-05 06:31 | 8.95411 | 98.76435 | 17467 ft | 319 kts | 207° |
| 2026-05-05 06:32 | 8.93447 | 98.75336 | 16912 ft | 324 kts | 207° |
| 2026-05-05 06:32 | 8.91456 | 98.74223 | 16369 ft | 330 kts | 207° |
| 2026-05-05 06:32 | 8.89412 | 98.73137 | 15828 ft | 334 kts | 202° |
| 2026-05-05 06:32 | 8.87225 | 98.72306 | 15279 ft | 337 kts | 195° |
| 2026-05-05 06:33 | 8.84953 | 98.71663 | 14727 ft | 341 kts | 192° |
| 2026-05-05 06:33 | 8.82824 | 98.71147 | 14225 ft | 345 kts | 191° |
| 2026-05-05 06:33 | 8.80544 | 98.70608 | 13698 ft | 349 kts | 191° |
| 2026-05-05 06:33 | 8.78170 | 98.70031 | 13102 ft | 352 kts | 192° |
| 2026-05-05 06:34 | 8.75788 | 98.69423 | 12547 ft | 353 kts | 192° |
| 2026-05-05 06:34 | 8.73411 | 98.68791 | 12006 ft | 353 kts | 193° |
| 2026-05-05 06:34 | 8.71034 | 98.68141 | 11442 ft | 354 kts | 193° |
| 2026-05-05 06:34 | 8.68662 | 98.67482 | 10973 ft | 351 kts | 193° |
| 2026-05-05 06:35 | 8.66360 | 98.66838 | 10892 ft | 335 kts | 193° |
| 2026-05-05 06:35 | 8.64159 | 98.66223 | 10779 ft | 322 kts | 193° |
| 2026-05-05 06:35 | 8.62045 | 98.65637 | 10653 ft | 307 kts | 193° |
| 2026-05-05 06:35 | 8.60024 | 98.65080 | 10542 ft | 296 kts | 192° |
| 2026-05-05 06:36 | 8.58072 | 98.64547 | 10418 ft | 285 kts | 192° |
| 2026-05-05 06:36 | 8.51515 | 98.62778 | 9273 ft | 251 kts | 192° |
| 2026-05-05 06:36 | 8.49943 | 98.62101 | 9868 ft | 245 kts | 206° |
| 2026-05-05 06:36 | 8.48395 | 98.61229 | 9939 ft | 262 kts | 207° |
| 2026-05-05 06:37 | 8.46815 | 98.60296 | 9750 ft | 266 kts | 208° |
| 2026-05-05 06:37 | 8.45213 | 98.59325 | 9145 ft | 276 kts | 208° |
| 2026-05-05 06:37 | 8.43573 | 98.58320 | 8810 ft | 275 kts | 209° |
| 2026-05-05 06:37 | 8.41956 | 98.57324 | 8545 ft | 270 kts | 209° |
| 2026-05-05 06:38 | 8.40364 | 98.56347 | 8283 ft | 265 kts | 209° |
| 2026-05-05 06:38 | 8.38810 | 98.55397 | 8101 ft | 255 kts | 208° |
| 2026-05-05 06:38 | 8.37291 | 98.54493 | 8005 ft | 253 kts | 202° |
| 2026-05-05 06:38 | 8.35637 | 98.53935 | 7896 ft | 250 kts | 186° |
| 2026-05-05 06:39 | 8.33914 | 98.53835 | 7543 ft | 247 kts | 171° |
| 2026-05-05 06:39 | 8.32215 | 98.54014 | 7206 ft | 245 kts | 171° |
| 2026-05-05 06:39 | 8.30518 | 98.54182 | 6866 ft | 245 kts | 172° |
| 2026-05-05 06:39 | 8.28822 | 98.54344 | 6534 ft | 244 kts | 172° |
| 2026-05-05 06:40 | 8.27704 | 98.54447 | 6317 ft | 244 kts | 172° |
| 2026-05-05 06:40 | 8.25447 | 98.54651 | 5854 ft | 243 kts | 172° |
| 2026-05-05 06:40 | 8.23769 | 98.54806 | 5526 ft | 241 kts | 172° |
| 2026-05-05 06:40 | 8.22664 | 98.54908 | 5307 ft | 240 kts | 172° |
| 2026-05-05 06:41 | 8.21005 | 98.55064 | 4966 ft | 239 kts | 172° |
| 2026-05-05 06:41 | 8.19354 | 98.55220 | 4627 ft | 237 kts | 172° |
| 2026-05-05 06:41 | 8.17714 | 98.55354 | 4346 ft | 234 kts | 179° |
| 2026-05-05 06:41 | 8.16161 | 98.55090 | 4301 ft | 221 kts | 198° |
| 2026-05-05 06:42 | 8.14840 | 98.54384 | 4201 ft | 212 kts | 216° |
| 2026-05-05 06:42 | 8.13809 | 98.53319 | 4041 ft | 213 kts | 234° |
| 2026-05-05 06:42 | 8.13160 | 98.52004 | 3820 ft | 208 kts | 252° |
| 2026-05-05 06:42 | 8.12940 | 98.50582 | 3558 ft | 204 kts | 265° |
| 2026-05-05 06:43 | 8.12830 | 98.49172 | 3293 ft | 199 kts | 264° |
| 2026-05-05 06:43 | 8.12722 | 98.47820 | 3033 ft | 186 kts | 265° |
| 2026-05-05 06:43 | 8.12621 | 98.46563 | 2784 ft | 174 kts | 264° |
| 2026-05-05 06:43 | 8.12525 | 98.45380 | 2554 ft | 164 kts | 264° |
| 2026-05-05 06:44 | 8.12433 | 98.44249 | 2336 ft | 161 kts | 263° |
| 2026-05-05 06:44 | 8.12343 | 98.43131 | 2125 ft | 158 kts | 264° |
| 2026-05-05 06:44 | 8.12253 | 98.42027 | 1910 ft | 159 kts | 265° |
| 2026-05-05 06:44 | 8.12165 | 98.40937 | 1698 ft | 158 kts | 264° |
| 2026-05-05 06:45 | 8.12077 | 98.39840 | 1475 ft | 157 kts | 264° |
| 2026-05-05 06:45 | 8.11988 | 98.38746 | 1260 ft | 157 kts | 265° |
| 2026-05-05 06:45 | 8.11899 | 98.37649 | 1050 ft | 156 kts | 265° |
| 2026-05-05 06:45 | 8.11811 | 98.36556 | 845 ft | 157 kts | 264° |
| 2026-05-05 06:46 | 8.11722 | 98.35459 | 636 ft | 156 kts | 265° |
| 2026-05-05 06:46 | 8.11634 | 98.34362 | 411 ft | 158 kts | 265° |
| 2026-05-05 06:46 | 8.11545 | 98.33269 | 193 ft | 153 kts | 266° |
| 2026-05-05 06:46 | 8.11378 | 98.32280 | 72 ft | 133 kts | 261° |
| 2026-05-05 06:47 | 8.11323 | 98.31642 | 43 ft | 48 kts | 264° |
| 2026-05-05 06:47 | 8.11311 | 98.31521 | 38 ft | 11 kts | 264° |
| 2026-05-05 06:47 | 8.11286 | 98.31327 | 33 ft | 42 kts | 258° |
| 2026-05-05 06:47 | 8.11151 | 98.31040 | 30 ft | 46 kts | 232° |
| 2026-05-05 06:48 | 8.11080 | 98.30745 | 29 ft | 43 kts | 262° |
| 2026-05-05 06:48 | 8.11032 | 98.30512 | 27 ft | 21 kts | 257° |
| 2026-05-05 06:48 | 8.10976 | 98.30430 | 27 ft | 10 kts | 176° |
| 2026-05-05 06:48 | 8.10894 | 98.30435 | 27 ft | 15 kts | 184° |
| 2026-05-05 06:49 | 8.10799 | 98.30420 | 27 ft | 13 kts | 187° |
| 2026-05-05 06:49 | 8.10714 | 98.30411 | 27 ft | 11 kts | 188° |
| 2026-05-05 06:49 | 8.10641 | 98.30403 | 27 ft | 10 kts | 171° |
| 2026-05-05 06:49 | 8.10593 | 98.30437 | 27 ft | 7 kts | 120° |
| 2026-05-05 06:50 | 8.10584 | 98.30464 | 27 ft | 0 kts | 104° |